createdAt,value
2023-04-11T00:01:43.557Z,45.50
2023-04-11T00:04:15.225Z,45.80
2023-04-11T00:06:48.491Z,46.10
2023-04-11T00:09:33.227Z,46.40
2023-04-11T00:12:06.856Z,46.50
2023-04-11T00:14:52.428Z,46.60
2023-04-11T00:17:29.131Z,46.80
2023-04-11T00:20:03.186Z,47.20
2023-04-11T00:22:36.739Z,47.30
2023-04-11T00:25:16.086Z,47.30
2023-04-11T00:27:50.683Z,47.40
2023-04-11T00:30:28.790Z,47.60
2023-04-11T00:32:59.297Z,48.30
2023-04-11T00:35:30.357Z,48.40
2023-04-11T00:38:14.214Z,48.40
2023-04-11T00:40:42.066Z,48.50
2023-04-11T00:43:21.093Z,48.90
2023-04-11T00:45:53.516Z,49.00
2023-04-11T00:48:31.873Z,49.60
2023-04-11T00:51:07.840Z,50.10
2023-04-11T00:53:44.602Z,50.10
2023-04-11T00:56:15.060Z,50.20
2023-04-11T00:58:55.407Z,50.40
2023-04-11T01:01:28.119Z,50.50
2023-04-11T01:04:03.831Z,50.50
2023-04-11T01:06:40.920Z,50.80
2023-04-11T01:09:20.019Z,51.30
2023-04-11T01:11:50.360Z,51.50
2023-04-11T01:14:20.993Z,52.10
2023-04-11T01:16:52.077Z,52.30
2023-04-11T01:19:27.705Z,52.60
2023-04-11T01:22:04.667Z,52.60
2023-04-11T01:24:40.320Z,52.80
2023-04-11T01:27:12.899Z,54.30
2023-04-11T01:29:49.053Z,56.20
2023-04-11T01:32:20.922Z,58.50
2023-04-11T01:34:57.791Z,61.50
2023-04-11T01:37:29.033Z,65.00
2023-04-11T01:39:56.807Z,67.40
2023-04-11T01:42:32.145Z,70.10
2023-04-11T01:45:18.641Z,71.70
2023-04-11T01:48:08.533Z,73.10
2023-04-11T01:50:55.134Z,74.60
2023-04-11T01:53:29.044Z,75.80
2023-04-11T01:56:10.942Z,77.10
2023-04-11T01:58:43.637Z,78.30
2023-04-11T02:01:23.099Z,79.40
2023-04-11T02:03:59.393Z,80.00
2023-04-11T02:06:27.890Z,80.60
2023-04-11T02:09:05.969Z,81.00
2023-04-11T02:11:41.116Z,81.60
2023-04-11T02:14:15.045Z,82.10
2023-04-11T02:17:04.067Z,82.20
2023-04-11T02:19:31.492Z,82.40
2023-04-11T02:22:03.479Z,83.00
2023-04-11T02:24:58.022Z,83.40
2023-04-11T02:27:31.735Z,84.00
2023-04-11T02:30:07.995Z,84.00
2023-04-11T02:32:39.793Z,84.20
2023-04-11T02:35:15.394Z,84.50
2023-04-11T02:37:43.646Z,84.70
2023-04-11T02:40:16.576Z,85.10
2023-04-11T02:42:49.856Z,85.40
2023-04-11T02:45:20.916Z,85.60
2023-04-11T02:48:06.171Z,85.40
2023-04-11T02:50:45.618Z,85.70
2023-04-11T02:53:26.582Z,85.70
2023-04-11T02:55:58.941Z,85.60
2023-04-11T02:58:42.229Z,85.50
2023-04-11T03:01:25.298Z,85.60
2023-04-11T03:04:00.489Z,85.50
2023-04-11T03:06:47.551Z,85.40
2023-04-11T03:09:21.381Z,85.10
2023-04-11T03:11:51.585Z,84.70
2023-04-11T03:14:19.059Z,84.30
2023-04-11T03:16:51.037Z,84.10
2023-04-11T03:19:30.412Z,83.80
2023-04-11T03:22:04.048Z,83.40
2023-04-11T03:24:36.742Z,83.00
2023-04-11T03:27:05.007Z,82.50
2023-04-11T03:29:39.947Z,82.00
2023-04-11T03:32:17.848Z,81.60
2023-04-11T03:34:50.933Z,81.20
2023-04-11T03:37:18.885Z,80.70
2023-04-11T03:39:59.859Z,80.00
2023-04-11T03:42:36.412Z,79.50
2023-04-11T03:45:11.964Z,79.20
2023-04-11T03:47:46.430Z,78.80
2023-04-11T03:50:16.022Z,78.50
2023-04-11T03:52:50.109Z,78.20
2023-04-11T03:55:22.891Z,78.00
2023-04-11T03:58:01.641Z,77.80
2023-04-11T04:00:30.298Z,77.60
2023-04-11T04:03:10.230Z,77.30
2023-04-11T04:05:52.147Z,77.00
2023-04-11T04:08:22.360Z,76.90
2023-04-11T04:10:50.446Z,76.70
2023-04-11T04:13:24.447Z,76.60
2023-04-11T04:16:03.537Z,76.50
2023-04-11T04:18:37.997Z,76.30
2023-04-11T04:21:15.191Z,76.20
2023-04-11T04:23:51.648Z,76.10
2023-04-11T04:26:30.270Z,76.10
2023-04-11T04:29:24.041Z,76.10
2023-04-11T04:31:57.296Z,76.20
2023-04-11T04:34:57.155Z,76.20
2023-04-11T04:37:40.957Z,76.30
2023-04-11T04:40:20.837Z,76.40
2023-04-11T04:43:02.436Z,76.50
2023-04-11T04:45:57.003Z,76.60
2023-04-11T04:48:32.469Z,76.60
2023-04-11T04:51:07.401Z,76.60
2023-04-11T04:53:46.231Z,76.50
2023-04-11T04:56:16.868Z,76.40
2023-04-11T04:58:49.025Z,76.30
2023-04-11T05:01:34.340Z,76.20
2023-04-11T05:04:11.580Z,75.30
2023-04-11T05:06:57.179Z,74.50
2023-04-11T05:09:29.265Z,73.20
2023-04-11T05:12:07.345Z,72.60
2023-04-11T05:14:38.680Z,71.90
2023-04-11T05:17:09.156Z,71.50
2023-04-11T05:19:36.621Z,71.40
2023-04-11T05:22:07.971Z,71.20
2023-04-11T05:24:39.272Z,71.10
2023-04-11T05:27:11.480Z,71.10
2023-04-11T05:29:46.250Z,71.10
2023-04-11T05:32:30.193Z,71.10
2023-04-11T05:35:06.988Z,71.00
2023-04-11T05:37:46.320Z,71.00
2023-04-11T05:40:16.336Z,70.70
2023-04-11T05:42:44.105Z,70.60
2023-04-11T05:45:16.635Z,70.50
2023-04-11T05:47:46.805Z,70.40
2023-04-11T05:50:19.718Z,70.40
2023-04-11T05:52:54.683Z,70.10
2023-04-11T05:55:28.081Z,69.90
2023-04-11T05:57:56.199Z,70.10
2023-04-11T06:00:24.849Z,70.40
2023-04-11T06:02:59.295Z,70.10
2023-04-11T06:05:32.345Z,70.20
2023-04-11T06:08:09.498Z,70.10
2023-04-11T06:10:53.735Z,69.70
2023-04-11T06:13:37.665Z,69.50
2023-04-11T06:16:06.741Z,69.60
2023-04-11T06:18:34.408Z,69.30
2023-04-11T06:21:13.260Z,69.00
2023-04-11T06:23:45.455Z,68.50
2023-04-11T06:26:21.554Z,68.30
2023-04-11T06:28:53.192Z,68.30
2023-04-11T06:31:20.464Z,68.00
2023-04-11T06:33:47.734Z,67.80
2023-04-11T06:36:17.524Z,68.20
2023-04-11T06:38:51.522Z,68.70
2023-04-11T06:41:27.504Z,68.30
2023-04-11T06:44:04.464Z,68.20
2023-04-11T06:46:36.744Z,68.60
2023-04-11T06:49:11.110Z,68.60
2023-04-11T06:51:42.030Z,68.10
2023-04-11T06:54:22.989Z,67.90
2023-04-11T06:56:52.806Z,67.90
2023-04-11T06:59:37.761Z,67.90
2023-04-11T07:02:12.790Z,68.10
2023-04-11T07:04:48.161Z,68.20
2023-04-11T07:07:20.929Z,68.30
2023-04-11T07:09:50.501Z,68.50
2023-04-11T07:12:42.765Z,68.30
2023-04-11T07:15:13.243Z,68.30
2023-04-11T07:17:42.977Z,68.40
2023-04-11T07:20:17.840Z,68.30
2023-04-11T07:22:54.449Z,68.20
2023-04-11T07:25:36.602Z,67.90
2023-04-11T07:28:19.698Z,67.90
2023-04-11T07:30:53.291Z,67.80
2023-04-11T07:33:23.353Z,67.80
2023-04-11T07:35:54.474Z,67.50
2023-04-11T07:38:33.583Z,66.90
2023-04-11T07:41:08.746Z,66.70
2023-04-11T07:43:44.021Z,66.60
2023-04-11T07:46:15.316Z,66.40
2023-04-11T07:48:45.873Z,66.40
2023-04-11T07:51:25.725Z,66.30
2023-04-11T07:53:58.904Z,65.60
2023-04-11T07:56:37.640Z,65.10
2023-04-11T07:59:19.777Z,64.20
2023-04-11T08:01:49.234Z,63.50
2023-04-11T08:04:19.640Z,63.10
2023-04-11T08:06:51.485Z,62.70
2023-04-11T08:09:23.110Z,62.40
2023-04-11T08:11:55.297Z,62.10
2023-04-11T08:14:28.773Z,61.30
2023-04-11T08:16:56.391Z,61.20
2023-04-11T08:19:28.589Z,60.80
2023-04-11T08:22:05.247Z,60.50
2023-04-11T08:24:41.360Z,60.40
2023-04-11T08:27:16.033Z,59.70
2023-04-11T08:29:57.676Z,59.30
2023-04-11T08:32:28.290Z,59.20
2023-04-11T08:34:58.371Z,59.10
2023-04-11T08:37:31.211Z,59.00
2023-04-11T08:40:03.328Z,58.80
2023-04-11T08:42:34.612Z,58.60
2023-04-11T08:45:15.555Z,58.10
2023-04-11T08:47:54.092Z,57.70
2023-04-11T08:50:24.414Z,57.50
2023-04-11T08:52:55.744Z,57.10
2023-04-11T08:55:24.364Z,57.00
2023-04-11T08:58:03.194Z,56.80
2023-04-11T09:00:32.604Z,56.70
2023-04-11T09:03:02.504Z,56.90
2023-04-11T09:05:40.255Z,58.10
2023-04-11T09:08:25.671Z,58.60
2023-04-11T09:11:12.236Z,59.30
2023-04-11T09:13:55.709Z,59.70
2023-04-11T09:16:29.260Z,59.70
2023-04-11T09:18:59.805Z,59.70
2023-04-11T09:21:51.218Z,59.50
2023-04-11T09:24:36.769Z,59.30
2023-04-11T09:27:27.304Z,59.00
2023-04-11T09:30:00.871Z,58.30
2023-04-11T09:32:37.820Z,58.20
2023-04-11T09:35:34.206Z,58.20
2023-04-11T09:38:10.270Z,57.90
2023-04-11T09:40:57.264Z,57.90
2023-04-11T09:43:43.326Z,57.10
2023-04-11T09:46:18.715Z,56.10
2023-04-11T09:48:54.829Z,55.70
2023-04-11T09:51:36.559Z,55.50
2023-04-11T09:54:20.850Z,55.10
2023-04-11T09:56:59.860Z,54.10
2023-04-11T09:59:28.812Z,53.10
2023-04-11T10:02:01.093Z,52.40
2023-04-11T10:04:43.117Z,52.00
2023-04-11T10:07:19.996Z,51.60
2023-04-11T10:09:52.963Z,51.40
2023-04-11T10:12:35.873Z,51.40
2023-04-11T10:15:10.933Z,51.50
2023-04-11T10:17:41.244Z,52.40
2023-04-11T10:20:53.359Z,52.70
2023-04-11T10:23:31.034Z,52.30
2023-04-11T10:26:03.189Z,52.40
2023-04-11T10:28:43.885Z,52.40
2023-04-11T10:31:17.550Z,52.70
2023-04-11T10:34:25.905Z,52.70
2023-04-11T10:37:08.820Z,53.20
2023-04-11T10:39:51.613Z,52.70
2023-04-11T10:42:57.587Z,52.40
2023-04-11T10:45:51.266Z,52.70
2023-04-11T10:48:34.989Z,53.30
2023-04-11T10:51:48.734Z,53.50
2023-04-11T10:54:38.759Z,53.20
2023-04-11T10:57:23.675Z,53.10
2023-04-11T10:59:58.124Z,52.90
2023-04-11T11:02:49.137Z,52.70
2023-04-11T11:05:23.241Z,52.60
2023-04-11T11:07:53.063Z,52.70
2023-04-11T11:11:08.100Z,52.40
2023-04-11T11:13:52.708Z,52.00
2023-04-11T11:16:30.448Z,52.00
2023-04-11T11:19:14.124Z,52.70
2023-04-11T11:21:48.851Z,52.00
2023-04-11T11:24:36.373Z,52.00
2023-04-11T11:27:07.938Z,52.00
2023-04-11T11:29:43.889Z,51.90
2023-04-11T11:32:30.363Z,51.60
2023-04-11T11:35:04.092Z,51.30
2023-04-11T11:37:39.229Z,50.80
2023-04-11T11:40:17.562Z,50.40
2023-04-11T11:43:03.314Z,50.20
2023-04-11T11:45:35.704Z,49.80
2023-04-11T11:48:19.846Z,49.70
2023-04-11T11:50:56.340Z,48.80
2023-04-11T11:53:27.063Z,48.00
2023-04-11T11:55:59.694Z,48.20
2023-04-11T11:58:50.185Z,48.10
2023-04-11T12:01:25.368Z,47.40
2023-04-11T12:04:02.751Z,47.10
2023-04-11T12:06:34.936Z,46.60
2023-04-11T12:09:10.775Z,46.30
2023-04-11T12:11:58.311Z,46.40
2023-04-11T12:14:35.299Z,46.20
2023-04-11T12:17:02.525Z,46.40
2023-04-11T12:19:38.693Z,44.90
2023-04-11T12:22:16.094Z,44.00
2023-04-11T12:24:52.857Z,43.10
2023-04-11T12:27:29.103Z,42.20
2023-04-11T12:30:02.508Z,42.10
2023-04-11T12:32:44.442Z,41.30
2023-04-11T12:35:17.699Z,41.20
2023-04-11T12:38:10.945Z,41.60
2023-04-11T12:40:46.387Z,41.40
2023-04-11T12:43:14.084Z,39.80
2023-04-11T12:45:41.433Z,39.60
2023-04-11T12:48:11.343Z,39.50
2023-04-11T12:50:43.812Z,38.50
2023-04-11T12:53:31.659Z,38.20
2023-04-11T12:56:06.568Z,39.70
2023-04-11T12:58:35.034Z,39.80
2023-04-11T13:01:06.315Z,39.30
2023-04-11T13:03:42.151Z,39.40
2023-04-11T13:06:12.568Z,39.10
2023-04-11T13:08:45.721Z,39.60
2023-04-11T13:11:15.906Z,39.90
2023-04-11T13:13:54.074Z,40.10
2023-04-11T13:16:29.422Z,40.90
2023-04-11T13:19:11.346Z,41.40
2023-04-11T13:21:49.379Z,41.40
2023-04-11T13:24:20.056Z,41.60
2023-04-11T13:26:52.989Z,41.80
2023-04-11T13:29:20.741Z,41.40
2023-04-11T13:31:52.988Z,41.60
2023-04-11T13:34:23.956Z,42.10
2023-04-11T13:36:57.108Z,42.30
2023-04-11T13:39:29.219Z,42.20
2023-04-11T13:42:05.582Z,42.20
2023-04-11T13:44:38.458Z,42.40
2023-04-11T13:47:08.994Z,42.00
2023-04-11T13:49:42.203Z,41.50
2023-04-11T13:52:09.737Z,41.30
2023-04-11T13:54:40.021Z,40.90
2023-04-11T13:57:20.624Z,39.60
2023-04-11T14:00:00.949Z,38.40
2023-04-11T14:02:32.884Z,37.80
2023-04-11T14:05:04.889Z,36.70
2023-04-11T14:07:43.299Z,36.10
2023-04-11T14:10:15.054Z,35.20
2023-04-11T14:12:45.280Z,36.10
2023-04-11T14:15:21.891Z,36.90
2023-04-11T14:17:59.110Z,36.80
2023-04-11T14:20:35.304Z,35.00
2023-04-11T14:23:10.572Z,35.00
2023-04-11T14:25:43.838Z,34.80
2023-04-11T14:28:14.277Z,34.40
2023-04-11T14:30:45.871Z,35.00
2023-04-11T14:33:13.463Z,35.30
2023-04-11T14:35:47.087Z,35.20
2023-04-11T14:38:21.886Z,34.70
2023-04-11T14:40:55.417Z,34.10
2023-04-11T14:43:34.634Z,33.50
2023-04-11T14:46:20.974Z,32.90
2023-04-11T14:48:54.739Z,32.70
2023-04-11T14:51:32.760Z,33.30
2023-04-11T14:54:11.893Z,33.50
2023-04-11T14:56:43.022Z,34.10
2023-04-11T14:59:36.191Z,34.50
2023-04-11T15:02:09.464Z,34.80
2023-04-11T15:04:36.880Z,34.80
2023-04-11T15:07:10.079Z,34.80
2023-04-11T15:09:46.595Z,34.60
2023-04-11T15:12:19.176Z,35.00
2023-04-11T15:14:46.189Z,34.80
2023-04-11T15:17:13.061Z,35.10
2023-04-11T15:19:39.924Z,35.40
2023-04-11T15:22:06.829Z,35.40
2023-04-11T15:24:33.668Z,35.60
2023-04-11T15:27:01.009Z,35.90
2023-04-11T15:29:27.927Z,35.90
2023-04-11T15:31:54.785Z,35.70
2023-04-11T15:34:23.326Z,36.10
2023-04-11T15:36:50.306Z,35.70
2023-04-11T15:39:17.254Z,35.40
2023-04-11T15:41:46.169Z,34.90
2023-04-11T15:44:14.137Z,35.00
2023-04-11T15:46:41.102Z,34.90
2023-04-11T15:49:08.066Z,35.10
2023-04-11T15:51:35.168Z,35.40
2023-04-11T15:54:02.283Z,35.90
2023-04-11T15:56:29.200Z,36.20
2023-04-11T15:58:56.053Z,36.50
2023-04-11T16:01:23.675Z,36.70
2023-04-11T16:03:52.500Z,37.00
2023-04-11T16:06:19.955Z,37.20
2023-04-11T16:08:46.953Z,37.30
2023-04-11T16:11:13.803Z,37.40
2023-04-11T16:13:40.840Z,37.60
2023-04-11T16:16:10.892Z,37.90
2023-04-11T16:18:37.818Z,38.20
2023-04-11T16:21:11.411Z,38.50
2023-04-11T16:23:39.196Z,38.50
2023-04-11T16:26:07.107Z,38.50
2023-04-11T16:28:37.036Z,38.60
2023-04-11T16:31:04.325Z,38.90
2023-04-11T16:33:31.233Z,38.90
2023-04-11T16:35:58.216Z,39.10
2023-04-11T16:38:25.389Z,39.40
2023-04-11T16:40:52.216Z,39.50
2023-04-11T16:43:19.134Z,39.70
2023-04-11T16:45:46.071Z,39.80
2023-04-11T16:48:13.063Z,40.00
2023-04-11T16:50:39.931Z,40.30
2023-04-11T16:53:06.922Z,40.50
2023-04-11T16:55:33.804Z,40.80
2023-04-11T16:58:00.927Z,41.00
2023-04-11T17:00:29.468Z,41.40
2023-04-11T17:02:56.890Z,41.50
2023-04-11T17:05:26.696Z,41.70
2023-04-11T17:07:53.550Z,41.80
2023-04-11T17:10:21.121Z,42.00
2023-04-11T17:12:51.150Z,42.20
2023-04-11T17:15:18.009Z,42.30
2023-04-11T17:17:45.268Z,42.40
2023-04-11T17:20:12.302Z,42.70
2023-04-11T17:22:41.691Z,42.90
2023-04-11T17:25:10.031Z,43.20
2023-04-11T17:27:37.286Z,43.40
2023-04-11T17:34:10.382Z,43.80
2023-04-11T17:36:42.612Z,44.10
2023-04-11T17:39:17.012Z,44.20
2023-04-11T17:41:47.181Z,44.20
2023-04-11T17:44:14.452Z,44.30
2023-04-11T17:46:41.637Z,44.40
2023-04-11T17:49:08.719Z,44.50
2023-04-11T17:51:38.814Z,44.70
2023-04-11T17:54:08.587Z,44.80
2023-04-11T17:56:35.824Z,45.00
2023-04-11T17:59:02.934Z,45.10
2023-04-11T18:01:32.804Z,45.30
2023-04-11T18:04:01.659Z,45.50
2023-04-11T18:06:29.609Z,45.50
2023-04-11T18:08:56.762Z,45.50
2023-04-11T18:11:23.847Z,45.60
2023-04-11T18:13:51.048Z,45.70
2023-04-11T18:16:18.445Z,45.70
2023-04-11T18:18:47.226Z,45.70
2023-04-11T18:21:16.068Z,45.70
2023-04-11T18:23:42.999Z,45.70
2023-04-11T18:26:09.890Z,45.70
2023-04-11T18:28:36.850Z,45.70
2023-04-11T18:31:04.857Z,45.80
2023-04-11T18:33:32.085Z,45.80
2023-04-11T18:35:59.210Z,45.90
2023-04-11T18:38:27.381Z,45.90
2023-04-11T18:40:55.739Z,46.50
2023-04-11T18:43:24.641Z,46.10
2023-04-11T18:45:51.614Z,46.20
2023-04-11T18:48:18.601Z,46.30
2023-04-11T18:50:48.558Z,46.30
2023-04-11T18:53:16.292Z,46.60
2023-04-11T18:55:43.232Z,46.60
2023-04-11T18:58:14.423Z,46.70
2023-04-11T19:00:43.000Z,46.70
2023-04-11T19:03:15.563Z,46.80
2023-04-11T19:05:43.926Z,46.80
2023-04-11T19:08:11.330Z,46.70
2023-04-11T19:10:38.303Z,46.80
2023-04-11T19:13:06.358Z,46.90
2023-04-11T19:15:33.256Z,46.90
2023-04-11T19:18:00.754Z,47.00
2023-04-11T19:20:28.250Z,47.00
2023-04-11T19:23:44.026Z,47.00
2023-04-11T19:26:11.003Z,47.10
2023-04-11T19:29:03.999Z,47.10
2023-04-11T19:32:07.139Z,47.10
2023-04-11T19:35:05.244Z,47.20
2023-04-11T19:42:07.063Z,47.40
2023-04-11T19:44:34.173Z,47.30
2023-04-11T19:47:01.166Z,47.30
2023-04-11T19:49:28.153Z,47.40
2023-04-11T19:51:55.050Z,47.50
2023-04-11T19:54:22.055Z,47.50
2023-04-11T19:56:52.533Z,47.50
2023-04-11T19:59:19.446Z,47.50
2023-04-11T20:01:46.462Z,47.60
2023-04-11T20:04:15.778Z,47.80
2023-04-11T20:06:44.150Z,47.80
2023-04-11T20:09:11.895Z,47.70
2023-04-11T20:11:39.605Z,47.90
2023-04-11T20:14:07.604Z,48.00
2023-04-11T20:16:34.708Z,48.00
2023-04-11T20:19:01.796Z,48.10
2023-04-11T20:21:28.825Z,48.10
2023-04-11T20:23:56.105Z,48.40
2023-04-11T20:26:23.422Z,48.60
2023-04-11T20:28:50.465Z,48.70
2023-04-11T20:31:17.486Z,48.90
2023-04-11T20:33:47.609Z,49.30
2023-04-11T20:36:15.661Z,49.80
2023-04-11T20:38:42.762Z,50.50
2023-04-11T20:41:10.442Z,50.70
2023-04-11T20:43:42.028Z,51.20
2023-04-11T20:46:09.000Z,51.60
2023-04-11T20:48:37.689Z,51.60
2023-04-11T20:51:04.753Z,51.80
2023-04-11T20:53:31.917Z,52.40
2023-04-11T20:56:01.434Z,53.10
2023-04-11T20:58:31.365Z,53.80
2023-04-11T21:00:59.290Z,54.00
2023-04-11T21:03:30.308Z,54.70
2023-04-11T21:05:57.626Z,55.10
2023-04-11T21:08:24.622Z,55.80
2023-04-11T21:10:51.527Z,56.40
2023-04-11T21:13:18.755Z,57.40
2023-04-11T21:15:45.742Z,58.00
2023-04-11T21:18:12.716Z,58.40
2023-04-11T21:20:40.479Z,59.00
2023-04-11T21:23:07.385Z,60.00
2023-04-11T21:25:36.294Z,60.70
2023-04-11T21:28:03.227Z,61.40
2023-04-11T21:30:30.683Z,62.20
2023-04-11T21:32:57.627Z,62.70
2023-04-11T21:35:24.576Z,62.80
2023-04-11T21:37:51.444Z,62.40
2023-04-11T21:40:18.465Z,62.00
2023-04-11T21:42:46.025Z,62.30
2023-04-11T21:45:12.966Z,62.50
2023-04-11T21:47:43.111Z,62.60
2023-04-11T21:50:10.754Z,62.20
2023-04-11T21:52:37.668Z,62.60
2023-04-11T21:55:07.191Z,63.30
2023-04-11T21:57:35.801Z,64.30
2023-04-11T22:00:04.334Z,65.00
2023-04-11T22:02:39.237Z,65.90
2023-04-11T22:05:09.189Z,66.40
2023-04-11T22:07:48.639Z,66.70
2023-04-11T22:10:22.197Z,66.70
2023-04-11T22:12:54.415Z,67.00
2023-04-11T22:15:21.509Z,67.00
2023-04-11T22:17:50.824Z,66.80
2023-04-11T22:20:18.501Z,66.70
2023-04-11T22:22:45.573Z,66.60
2023-04-11T22:25:12.568Z,66.60
2023-04-11T22:27:39.622Z,66.40
2023-04-11T22:30:07.775Z,66.20
2023-04-11T22:32:34.946Z,66.00
2023-04-11T22:35:01.860Z,65.90
2023-04-11T22:37:28.715Z,65.80
2023-04-11T22:39:55.758Z,65.60
2023-04-11T22:42:22.712Z,65.40
2023-04-11T22:44:49.550Z,65.10
2023-04-11T22:47:16.848Z,64.80
2023-04-11T22:49:45.176Z,64.50
2023-04-11T22:52:15.728Z,64.40
2023-04-11T22:54:43.227Z,64.30
2023-04-11T22:57:10.683Z,64.40
2023-04-11T22:59:37.648Z,64.70
2023-04-11T23:02:04.815Z,65.20
2023-04-11T23:04:32.216Z,65.50
2023-04-11T23:06:59.658Z,65.60
2023-04-11T23:09:28.638Z,65.80
2023-04-11T23:11:55.546Z,65.90
2023-04-11T23:14:22.634Z,65.90
2023-04-11T23:16:49.725Z,65.70
2023-04-11T23:19:18.906Z,65.40
2023-04-11T23:21:45.920Z,65.20
2023-04-11T23:24:12.810Z,64.90
2023-04-11T23:26:39.720Z,64.80
2023-04-11T23:29:07.399Z,64.70
2023-04-11T23:31:34.298Z,64.30
2023-04-11T23:34:01.870Z,63.90
2023-04-11T23:36:29.316Z,63.60
2023-04-11T23:38:56.832Z,63.20
2023-04-11T23:41:24.112Z,63.10
2023-04-11T23:43:51.475Z,63.00
2023-04-11T23:46:18.447Z,63.00
2023-04-11T23:48:47.030Z,62.90
2023-04-11T23:51:14.364Z,62.60
2023-04-11T23:53:42.697Z,62.60
2023-04-11T23:56:11.665Z,62.40
2023-04-11T23:58:38.635Z,62.40
